Time;durP1;ratioP1;P1;durP2;ratioP2;P2;SDS_P1;SDS_P2;PMS_P1;PMS_P2;Temp;Humidity;BMP_temperature;BMP_pressure;BME280_temperature;BME280_humidity;BME280_pressure;Samples;Min_cycle;Max_cycle;Signal;HPM_P1;HPM_P2
2022/01/09 00:02:23;;;;;;;10.93;7.80;;;4.20;99.90;;;;;;5055402;28;20056;-85
2022/01/09 00:04:50;;;;;;;10.20;7.15;;;4.20;99.90;;;;;;5055543;28;20057;-85
2022/01/09 00:07:16;;;;;;;11.45;8.07;;;4.70;99.90;;;;;;5055605;28;20052;-84
2022/01/09 00:09:44;;;;;;;11.48;7.50;;;4.20;99.90;;;;;;5057573;28;20049;-82
2022/01/09 00:12:11;;;;;;;9.55;7.38;;;4.20;99.90;;;;;;5055418;28;20052;-84
2022/01/09 00:14:37;;;;;;;10.75;7.93;;;4.20;99.90;;;;;;5039413;28;20048;-82
2022/01/09 00:17:03;;;;;;;10.18;7.72;;;4.20;99.90;;;;;;5043278;28;20044;-88
2022/01/09 00:19:29;;;;;;;12.07;8.25;;;4.20;99.90;;;;;;5076239;28;20045;-83
2022/01/09 00:21:55;;;;;;;11.70;8.50;;;4.20;99.90;;;;;;5056905;28;20058;-83
2022/01/09 00:24:21;;;;;;;9.70;7.70;;;4.20;99.90;;;;;;5076075;28;20056;-82
2022/01/09 00:26:46;;;;;;;13.40;8.07;;;4.20;99.90;;;;;;5057080;28;20052;-84
2022/01/09 00:29:12;;;;;;;11.30;7.85;;;4.20;99.90;;;;;;5075954;28;20045;-83
2022/01/09 00:31:38;;;;;;;11.05;8.93;;;4.20;99.90;;;;;;5076267;28;20044;-84
2022/01/09 00:34:04;;;;;;;12.85;8.82;;;4.10;99.90;;;;;;5075225;28;20119;-83
2022/01/09 00:36:30;;;;;;;11.38;8.35;;;4.20;99.90;;;;;;5057692;28;20133;-82
2022/01/09 00:38:57;;;;;;;10.02;8.00;;;4.20;99.90;;;;;;5076033;28;20052;-81
2022/01/09 00:41:25;;;;;;;10.63;8.20;;;4.20;99.90;;;;;;5075823;28;20044;-83
2022/01/09 00:43:51;;;;;;;11.45;8.23;;;4.20;99.90;;;;;;5057794;28;20041;-83
2022/01/09 00:46:17;;;;;;;12.10;8.77;;;4.10;99.90;;;;;;5075852;28;20044;-84
2022/01/09 00:48:43;;;;;;;11.25;8.30;;;4.10;99.90;;;;;;5075735;28;20147;-84
2022/01/09 00:51:09;;;;;;;12.00;8.27;;;4.10;99.90;;;;;;5066505;28;20045;-84
2022/01/09 00:53:34;;;;;;;12.82;8.77;;;4.20;99.90;;;;;;5054671;28;20064;-84
2022/01/09 00:56:00;;;;;;;11.68;8.63;;;4.20;99.90;;;;;;5037123;28;20500;-84
2022/01/09 00:58:26;;;;;;;11.32;8.32;;;4.20;99.90;;;;;;5054739;28;20052;-83
2022/01/09 01:00:53;;;;;;;13.30;9.00;;;4.10;99.90;;;;;;5054669;28;20500;-84
2022/01/09 01:03:19;;;;;;;13.07;8.63;;;4.20;99.90;;;;;;5054385;28;20817;-82
2022/01/09 01:05:44;;;;;;;12.27;8.90;;;4.20;99.90;;;;;;5055339;28;20041;-86
2022/01/09 01:08:10;;;;;;;13.02;8.73;;;4.20;99.90;;;;;;5055286;28;20036;-83
2022/01/09 01:10:36;;;;;;;12.68;9.07;;;4.20;99.90;;;;;;5054304;28;20057;-83
2022/01/09 01:13:02;;;;;;;12.65;9.57;;;4.20;99.90;;;;;;5054652;28;20146;-83
2022/01/09 01:15:30;;;;;;;12.32;9.02;;;4.20;99.90;;;;;;5054763;28;20087;-81
2022/01/09 01:17:55;;;;;;;12.85;8.85;;;4.10;99.90;;;;;;5054832;28;20399;-82
2022/01/09 01:20:22;;;;;;;11.27;7.88;;;4.10;99.90;;;;;;5057307;28;20049;-82
2022/01/09 01:22:52;;;;;;;12.02;9.07;;;4.20;99.90;;;;;;5056999;28;20060;-82
2022/01/09 01:25:19;;;;;;;12.05;8.95;;;4.20;99.90;;;;;;5056460;28;20060;-82
2022/01/09 01:27:45;;;;;;;11.32;8.80;;;4.20;99.90;;;;;;5074792;28;20048;-81
2022/01/09 01:30:11;;;;;;;12.88;10.07;;;4.20;99.90;;;;;;5075165;28;20049;-83
2022/01/09 01:32:38;;;;;;;12.45;9.20;;;4.10;99.90;;;;;;5074246;28;20041;-82
2022/01/09 01:35:04;;;;;;;12.88;9.98;;;4.20;99.90;;;;;;5074742;28;20048;-83
2022/01/09 01:37:33;;;;;;;13.25;10.18;;;4.20;99.90;;;;;;5074393;28;20041;-82
2022/01/09 01:39:58;;;;;;;12.82;9.77;;;4.10;99.90;;;;;;5074588;28;20059;-82
2022/01/09 01:42:24;;;;;;;14.25;10.20;;;4.10;99.90;;;;;;5062598;28;20091;-86
2022/01/09 01:44:50;;;;;;;12.18;9.60;;;4.10;99.90;;;;;;5053707;28;20045;-82
2022/01/09 01:47:19;;;;;;;14.35;10.30;;;4.20;99.90;;;;;;5053066;28;20045;-83
2022/01/09 01:49:45;;;;;;;12.98;10.27;;;4.10;99.90;;;;;;5053396;28;20120;-82
2022/01/09 01:52:11;;;;;;;14.45;10.20;;;4.10;99.90;;;;;;5052772;28;20052;-83
2022/01/09 01:54:39;;;;;;;14.20;10.70;;;4.10;99.90;;;;;;5072710;28;20049;-82
2022/01/09 01:57:05;;;;;;;16.65;10.75;;;4.20;99.90;;;;;;5072227;28;20049;-85
2022/01/09 01:59:31;;;;;;;14.30;10.50;;;4.20;99.90;;;;;;5054560;28;20058;-83
2022/01/09 02:01:58;;;;;;;15.27;10.32;;;4.10;99.90;;;;;;5072739;28;20119;-82
2022/01/09 02:04:25;;;;;;;14.80;10.35;;;4.20;99.90;;;;;;5073231;28;20048;-82
2022/01/09 02:06:53;;;;;;;14.88;10.73;;;4.10;99.90;;;;;;5055465;28;20131;-81
2022/01/09 02:09:19;;;;;;;16.90;11.48;;;4.40;99.90;;;;;;5073235;28;20080;-82
2022/01/09 02:11:45;;;;;;;16.83;11.52;;;4.20;99.90;;;;;;5054917;28;20045;-82
2022/01/09 02:14:11;;;;;;;14.68;11.00;;;4.10;99.90;;;;;;5052775;28;20037;-82
2022/01/09 02:16:42;;;;;;;14.38;10.85;;;4.20;99.90;;;;;;5052758;28;20533;-81
2022/01/09 02:19:11;;;;;;;15.63;11.50;;;4.20;99.90;;;;;;5002520;28;20053;-83
2022/01/09 02:21:40;;;;;;;16.70;11.15;;;4.20;99.90;;;;;;5052623;28;20048;-82
2022/01/09 02:24:06;;;;;;;16.02;9.95;;;4.20;99.90;;;;;;5052518;28;20067;-82
2022/01/09 02:26:35;;;;;;;17.77;10.15;;;4.20;99.90;;;;;;5052470;28;20053;-82
2022/01/09 02:29:00;;;;;;;15.93;9.65;;;4.30;99.90;;;;;;5051884;28;20500;-83
2022/01/09 02:31:26;;;;;;;16.10;9.68;;;4.30;99.90;;;;;;5051074;28;20088;-84
2022/01/09 02:33:51;;;;;;;15.40;8.65;;;4.30;99.90;;;;;;5052370;28;20041;-82
2022/01/09 02:36:17;;;;;;;19.85;10.57;;;4.40;99.90;;;;;;5051984;28;20092;-82
2022/01/09 02:38:44;;;;;;;19.85;9.48;;;4.40;99.90;;;;;;5033850;28;20037;-82
2022/01/09 02:41:10;;;;;;;21.48;9.18;;;4.40;99.90;;;;;;5051766;28;20120;-82
2022/01/09 02:43:36;;;;;;;22.35;8.27;;;4.50;99.90;;;;;;5051517;28;20563;-83
2022/01/09 02:48:34;;;;;;;22.83;8.60;;;4.50;99.90;;;;;;5033740;28;20055;-82
2022/01/09 02:51:07;;;;;;;19.65;7.40;;;4.60;99.90;;;;;;5059320;28;20090;-83
2022/01/09 02:53:35;;;;;;;29.23;7.70;;;4.60;99.90;;;;;;5069692;28;20044;-83
2022/01/09 02:56:02;;;;;;;22.98;6.40;;;4.60;99.90;;;;;;5053286;28;20040;-83
2022/01/09 02:58:28;;;;;;;33.45;6.80;;;4.70;99.90;;;;;;5071147;28;20174;-83
2022/01/09 03:00:54;;;;;;;25.85;5.32;;;4.70;99.90;;;;;;5070406;28;20123;-83
2022/01/09 03:03:19;;;;;;;24.75;5.00;;;4.80;99.90;;;;;;5070896;28;20398;-83
2022/01/09 03:05:45;;;;;;;28.58;5.53;;;4.80;99.90;;;;;;5070734;28;20044;-82
2022/01/09 03:08:11;;;;;;;29.73;7.00;;;5.20;99.90;;;;;;5070791;28;20418;-83
2022/01/09 03:10:37;;;;;;;26.73;6.18;;;4.80;99.90;;;;;;5052777;28;20049;-82
2022/01/09 03:13:05;;;;;;;25.63;6.35;;;4.80;99.90;;;;;;5070549;28;20052;-84
2022/01/09 03:15:33;;;;;;;29.90;7.07;;;4.80;99.90;;;;;;5070008;28;20127;-83
2022/01/09 03:17:59;;;;;;;30.08;5.20;;;4.90;99.90;;;;;;5052591;28;20061;-84
2022/01/09 03:20:26;;;;;;;31.83;5.70;;;5.60;99.90;;;;;;5070678;28;20040;-84
2022/01/09 03:22:54;;;;;;;41.85;6.10;;;4.90;99.90;;;;;;5070518;28;20060;-83
2022/01/09 03:25:21;;;;;;;53.70;6.43;;;5.00;99.90;;;;;;5070502;28;20102;-84
2022/01/09 03:27:49;;;;;;;56.25;6.43;;;5.00;99.90;;;;;;5052031;28;20052;-85
2022/01/09 03:30:16;;;;;;;66.50;7.13;;;5.80;99.90;;;;;;5069953;28;20044;-84
2022/01/09 03:32:42;;;;;;;60.78;6.63;;;5.20;99.90;;;;;;5069887;28;20553;-83
2022/01/09 03:35:11;;;;;;;63.13;6.65;;;5.30;99.90;;;;;;5070161;28;20052;-83
2022/01/09 03:37:38;;;;;;;59.72;6.35;;;5.30;99.90;;;;;;5070054;28;20086;-82
2022/01/09 03:40:06;;;;;;;60.97;6.95;;;5.40;99.90;;;;;;5070218;28;20126;-83
2022/01/09 03:42:31;;;;;;;68.00;7.60;;;5.50;99.90;;;;;;5070134;28;20049;-84
2022/01/09 03:44:57;;;;;;;51.10;6.78;;;5.60;99.90;;;;;;5069917;28;20045;-84
2022/01/09 03:47:23;;;;;;;54.42;6.22;;;5.60;99.90;;;;;;5069796;28;20123;-84
2022/01/09 03:49:50;;;;;;;56.05;6.80;;;5.60;99.90;;;;;;5040710;28;20053;-84
2022/01/09 03:52:16;;;;;;;54.70;6.47;;;5.60;99.90;;;;;;5051262;28;20049;-84
2022/01/09 03:54:42;;;;;;;53.20;6.57;;;5.60;99.90;;;;;;5051156;28;20124;-85
2022/01/09 03:57:08;;;;;;;51.78;6.75;;;5.70;99.90;;;;;;5032530;28;20124;-83
2022/01/09 03:59:33;;;;;;;57.40;6.68;;;5.90;99.90;;;;;;5050253;28;20505;-84
2022/01/09 04:02:00;;;;;;;51.60;6.60;;;6.30;99.90;;;;;;5036614;28;20064;-82
2022/01/09 04:04:26;;;;;;;58.15;6.50;;;5.80;99.90;;;;;;5054809;28;20057;-83
2022/01/09 04:06:52;;;;;;;48.95;5.60;;;5.80;99.90;;;;;;5055068;28;20503;-81
2022/01/09 04:09:20;;;;;;;55.88;7.20;;;5.80;99.90;;;;;;5054652;28;20056;-83
2022/01/09 04:11:47;;;;;;;56.50;5.80;;;5.80;99.90;;;;;;5054605;28;20045;-83
2022/01/09 04:14:14;;;;;;;47.08;6.00;;;5.80;99.90;;;;;;5054302;28;20048;-85
2022/01/09 04:16:40;;;;;;;45.40;5.10;;;6.50;99.90;;;;;;5036597;28;20052;-85
2022/01/09 04:19:06;;;;;;;47.55;6.03;;;5.80;99.90;;;;;;5058630;28;20052;-83
2022/01/09 04:21:31;;;;;;;56.78;6.18;;;5.80;99.90;;;;;;5074314;28;20078;-84
2022/01/09 04:23:57;;;;;;;43.47;5.20;;;5.80;99.90;;;;;;5050194;28;20057;-82
2022/01/09 04:26:23;;;;;;;42.80;4.90;;;5.80;99.90;;;;;;5036666;28;20056;-83
2022/01/09 04:28:48;;;;;;;43.65;6.05;;;6.10;99.90;;;;;;5054058;28;20049;-82
2022/01/09 04:31:15;;;;;;;42.13;4.70;;;5.80;99.90;;;;;;5053866;28;20080;-82
2022/01/09 04:33:42;;;;;;;42.42;5.20;;;5.80;99.90;;;;;;5053880;28;20063;-85
2022/01/09 04:36:08;;;;;;;42.38;4.95;;;5.80;99.90;;;;;;5054266;28;20584;-82
2022/01/09 04:38:33;;;;;;;42.33;5.95;;;6.60;99.90;;;;;;5035824;28;20053;-82
2022/01/09 04:40:59;;;;;;;46.58;6.10;;;5.80;99.90;;;;;;5053726;28;20055;-84
2022/01/09 04:43:27;;;;;;;33.75;4.13;;;5.80;99.90;;;;;;5053726;28;20045;-85
2022/01/09 04:45:52;;;;;;;39.47;4.55;;;6.70;99.90;;;;;;5035465;28;20060;-84
2022/01/09 04:48:18;;;;;;;39.13;5.18;;;5.80;99.90;;;;;;5054093;28;20049;-83
2022/01/09 04:50:45;;;;;;;39.15;4.45;;;5.80;99.90;;;;;;5073528;28;20055;-82
2022/01/09 04:53:11;;;;;;;35.03;4.70;;;5.80;99.90;;;;;;5073743;28;20063;-83
2022/01/09 04:55:41;;;;;;;38.08;4.57;;;5.80;99.90;;;;;;5071733;28;20539;-83
2022/01/09 04:58:08;;;;;;;42.85;4.97;;;6.30;99.90;;;;;;5073249;28;20048;-83
2022/01/09 05:00:34;;;;;;;32.10;4.07;;;5.80;99.90;;;;;;5055402;28;20052;-82
2022/01/09 05:03:00;;;;;;;25.38;3.45;;;5.80;99.90;;;;;;5073171;28;20036;-82
2022/01/09 05:05:26;;;;;;;28.13;3.97;;;5.80;99.90;;;;;;5073154;28;20064;-83
2022/01/09 05:07:51;;;;;;;35.63;3.72;;;5.70;99.90;;;;;;5073345;28;20040;-82
2022/01/09 05:10:17;;;;;;;32.53;4.03;;;5.70;99.90;;;;;;5073173;28;20510;-83
2022/01/09 05:12:43;;;;;;;33.75;4.22;;;6.30;99.90;;;;;;5072735;28;20048;-84
2022/01/09 05:15:09;;;;;;;30.13;3.88;;;5.70;99.90;;;;;;5072798;28;20044;-83
2022/01/09 05:17:35;;;;;;;34.00;4.35;;;5.70;99.90;;;;;;5072572;28;20052;-83
2022/01/09 05:20:01;;;;;;;41.17;4.35;;;5.70;99.90;;;;;;5072654;28;20044;-83
2022/01/09 05:22:28;;;;;;;31.45;4.07;;;5.70;99.90;;;;;;5072359;28;20066;-83
2022/01/09 05:24:55;;;;;;;29.17;4.25;;;5.60;99.90;;;;;;5072503;28;20056;-83
2022/01/09 05:27:22;;;;;;;24.80;3.15;;;5.60;99.90;;;;;;5037826;28;20043;-82
2022/01/09 05:29:48;;;;;;;28.10;4.72;;;5.60;99.90;;;;;;5054884;28;20040;-82
2022/01/09 05:32:13;;;;;;;25.75;3.65;;;5.60;99.90;;;;;;5072458;28;20487;-86
2022/01/09 05:34:39;;;;;;;34.20;3.05;;;5.60;99.90;;;;;;5071931;28;20037;-86
2022/01/09 05:37:05;;;;;;;22.20;3.28;;;5.60;99.90;;;;;;5072047;28;20514;-83
2022/01/09 05:39:34;;;;;;;21.77;2.92;;;6.30;99.90;;;;;;5071917;28;20048;-82
2022/01/09 05:42:03;;;;;;;18.80;3.33;;;5.50;99.90;;;;;;5072209;28;20048;-83
2022/01/09 05:44:29;;;;;;;25.08;3.35;;;5.50;99.90;;;;;;5072023;28;20056;-82
2022/01/09 05:46:54;;;;;;;27.92;3.45;;;5.50;99.90;;;;;;5071841;28;20051;-84
2022/01/09 05:49:20;;;;;;;29.17;3.35;;;5.50;99.90;;;;;;5062954;28;20487;-81
2022/01/09 05:51:46;;;;;;;32.30;4.20;;;5.50;99.90;;;;;;5051617;28;20053;-81
2022/01/09 05:54:11;;;;;;;21.60;3.40;;;5.50;99.90;;;;;;5051772;28;20037;-82
2022/01/09 05:56:37;;;;;;;29.70;4.30;;;5.50;99.90;;;;;;5051771;28;20564;-81
2022/01/09 05:59:03;;;;;;;27.23;2.75;;;5.50;99.90;;;;;;5033661;28;20094;-82
2022/01/09 06:01:29;;;;;;;25.40;3.92;;;5.50;99.90;;;;;;5033553;28;20087;-81
2022/01/09 06:03:54;;;;;;;26.60;4.20;;;5.90;99.90;;;;;;5036526;28;20121;-82
2022/01/09 06:06:20;;;;;;;22.83;3.22;;;5.50;99.90;;;;;;5071777;28;20044;-81
2022/01/09 06:08:46;;;;;;;32.65;3.75;;;5.80;99.90;;;;;;5071082;28;20079;-81
2022/01/09 06:11:12;;;;;;;27.33;3.55;;;5.40;99.90;;;;;;5053561;28;20041;-82
2022/01/09 06:13:38;;;;;;;21.40;3.13;;;5.50;99.90;;;;;;5071342;28;20055;-81
2022/01/09 06:16:04;;;;;;;23.83;2.83;;;5.40;99.90;;;;;;5071313;28;20052;-84
2022/01/09 06:18:30;;;;;;;18.98;2.83;;;5.40;99.90;;;;;;5070730;28;20119;-82
2022/01/09 06:20:55;;;;;;;22.75;3.15;;;5.40;99.90;;;;;;5071194;28;20614;-84
2022/01/09 06:23:21;;;;;;;25.85;3.25;;;5.40;99.90;;;;;;5070029;28;20139;-80
2022/01/09 06:25:51;;;;;;;23.77;3.50;;;5.40;99.90;;;;;;5070768;28;20052;-81
2022/01/09 06:28:17;;;;;;;19.20;2.85;;;5.40;99.90;;;;;;5071071;28;20079;-81
2022/01/09 06:30:44;;;;;;;16.85;3.03;;;5.40;99.90;;;;;;5053414;28;20044;-83
2022/01/09 06:33:10;;;;;;;31.05;3.50;;;5.80;99.90;;;;;;5053297;28;20037;-82
2022/01/09 06:35:36;;;;;;;24.92;2.78;;;5.30;99.90;;;;;;5070912;28;20048;-82
2022/01/09 06:38:03;;;;;;;27.08;3.03;;;5.30;99.90;;;;;;5070830;28;20036;-87
2022/01/09 06:40:28;;;;;;;23.30;3.17;;;5.30;99.90;;;;;;5052539;28;20086;-84
2022/01/09 06:42:54;;;;;;;23.98;3.05;;;5.30;99.90;;;;;;5070865;28;20048;-83
2022/01/09 06:45:22;;;;;;;31.27;3.20;;;5.30;99.90;;;;;;5070770;28;20052;-82
2022/01/09 06:47:48;;;;;;;24.88;3.40;;;5.30;99.90;;;;;;5052410;28;20040;-81
2022/01/09 06:50:15;;;;;;;20.00;3.05;;;5.30;99.90;;;;;;5052993;28;20036;-80
2022/01/09 06:52:41;;;;;;;28.67;4.03;;;5.30;99.90;;;;;;5050628;28;20048;-83
2022/01/09 06:55:08;;;;;;;30.38;3.63;;;5.30;99.90;;;;;;5015882;28;20048;-81
2022/01/09 06:57:34;;;;;;;25.55;3.40;;;5.30;99.90;;;;;;5050669;28;20132;-81
2022/01/09 06:59:59;;;;;;;21.55;2.70;;;5.30;99.90;;;;;;5050537;28;20124;-81
2022/01/09 07:02:25;;;;;;;21.17;2.70;;;5.30;99.90;;;;;;5050339;28;20045;-81
2022/01/09 07:04:51;;;;;;;25.77;3.28;;;5.30;99.90;;;;;;5050607;28;20045;-81
2022/01/09 07:07:16;;;;;;;25.67;3.22;;;5.20;99.90;;;;;;5050233;28;20052;-81
2022/01/09 07:09:42;;;;;;;20.58;3.03;;;5.20;99.90;;;;;;5050477;28;20049;-82
2022/01/09 07:12:09;;;;;;;18.33;2.95;;;5.20;99.90;;;;;;5050011;28;20491;-84
2022/01/09 07:14:35;;;;;;;16.63;2.40;;;5.20;99.90;;;;;;5050285;28;20110;-81
2022/01/09 07:17:01;;;;;;;21.65;2.88;;;5.80;99.90;;;;;;5050141;28;20044;-80
2022/01/09 07:19:27;;;;;;;21.27;2.47;;;5.40;99.90;;;;;;5050066;28;20041;-82
2022/01/09 07:21:53;;;;;;;24.25;2.78;;;5.10;99.90;;;;;;5050428;28;20036;-80
2022/01/09 07:24:18;;;;;;;21.73;2.75;;;5.10;99.90;;;;;;5050337;28;20064;-83
2022/01/09 07:26:44;;;;;;;30.85;3.17;;;5.10;99.90;;;;;;5032134;28;20484;-81
2022/01/09 07:29:10;;;;;;;20.33;2.10;;;5.80;99.90;;;;;;5050589;28;20403;-81
2022/01/09 07:31:36;;;;;;;22.52;2.65;;;5.00;99.90;;;;;;5050249;28;20110;-81
2022/01/09 07:34:02;;;;;;;23.00;2.45;;;5.00;99.90;;;;;;5050066;28;20400;-81
2022/01/09 07:36:27;;;;;;;25.65;2.80;;;4.90;99.90;;;;;;5053428;28;20041;-82
2022/01/09 07:38:53;;;;;;;22.80;2.72;;;4.90;99.90;;;;;;5019643;28;20056;-81
2022/01/09 07:41:18;;;;;;;17.58;2.65;;;4.90;99.90;;;;;;5036470;28;20048;-81
2022/01/09 07:43:44;;;;;;;16.15;2.03;;;4.90;99.90;;;;;;5053976;28;20132;-83
2022/01/09 07:46:10;;;;;;;13.60;2.00;;;4.80;99.90;;;;;;5054278;28;20120;-83
2022/01/09 07:48:36;;;;;;;15.60;2.10;;;4.80;99.90;;;;;;5042369;28;20453;-82
2022/01/09 07:51:02;;;;;;;17.13;2.15;;;4.80;99.90;;;;;;5074868;28;20425;-85
2022/01/09 07:53:27;;;;;;;20.15;2.42;;;4.80;99.90;;;;;;5074497;28;20123;-87
2022/01/09 07:55:53;;;;;;;12.88;2.10;;;4.80;99.90;;;;;;5074100;28;20705;-83
2022/01/09 07:58:19;;;;;;;12.40;1.65;;;4.80;99.90;;;;;;5073452;28;20044;-86
2022/01/09 08:00:45;;;;;;;13.30;2.40;;;4.70;99.90;;;;;;5055935;28;20083;-84
2022/01/09 08:03:12;;;;;;;17.20;2.45;;;4.70;99.90;;;;;;5073593;28;20463;-84
2022/01/09 08:05:38;;;;;;;19.23;2.00;;;4.70;99.90;;;;;;5073920;28;20044;-86
2022/01/09 08:08:04;;;;;;;15.93;2.20;;;4.50;99.90;;;;;;5055691;28;20048;-82
2022/01/09 08:10:30;;;;;;;11.65;1.88;;;5.30;99.90;;;;;;5073889;28;20037;-83
2022/01/09 08:12:56;;;;;;;26.75;1.88;;;4.70;99.90;;;;;;5073626;28;20534;-83
2022/01/09 08:15:21;;;;;;;12.73;1.65;;;4.70;99.90;;;;;;5069130;28;20063;-80
2022/01/09 08:17:49;;;;;;;12.65;1.65;;;4.70;99.90;;;;;;5064488;28;20487;-82
2022/01/09 08:20:16;;;;;;;15.98;1.80;;;4.70;99.90;;;;;;5073867;28;20052;-85
2022/01/09 08:22:42;;;;;;;15.50;1.77;;;5.60;99.90;;;;;;5073787;28;20045;-80
2022/01/09 08:25:18;;;;;;;14.20;2.10;;;5.40;99.90;;;;;;5062808;28;20049;-85
2022/01/09 08:27:45;;;;;;;16.70;1.85;;;4.60;99.90;;;;;;5035214;28;20049;-85
2022/01/09 08:30:12;;;;;;;9.48;1.75;;;5.00;99.90;;;;;;5059120;28;20388;-82
2022/01/09 08:32:39;;;;;;;6.47;1.20;;;5.00;99.90;;;;;;5035442;28;20080;-83
2022/01/09 08:35:06;;;;;;;15.65;2.17;;;4.60;99.90;;;;;;5034964;28;20048;-82
2022/01/09 08:37:32;;;;;;;10.10;1.55;;;4.60;99.90;;;;;;5053203;28;20053;-83
2022/01/09 08:39:59;;;;;;;16.92;2.55;;;5.30;99.90;;;;;;5057647;28;20468;-82
2022/01/09 08:42:24;;;;;;;8.90;1.58;;;4.60;99.90;;;;;;5053009;28;20049;-82
2022/01/09 08:44:50;;;;;;;11.20;1.75;;;4.60;99.90;;;;;;5052506;28;20411;-82
2022/01/09 08:47:16;;;;;;;9.27;1.80;;;4.70;99.90;;;;;;5062890;28;20044;-83
2022/01/09 08:49:41;;;;;;;13.70;2.03;;;4.60;99.90;;;;;;5057570;28;20120;-86
2022/01/09 08:52:08;;;;;;;18.45;2.65;;;4.70;99.90;;;;;;5052704;28;20400;-84
2022/01/09 08:54:34;;;;;;;14.65;2.25;;;4.70;99.90;;;;;;5053962;28;20124;-85
2022/01/09 08:57:00;;;;;;;13.95;2.17;;;4.70;99.90;;;;;;5043042;28;20123;-81
2022/01/09 08:59:26;;;;;;;14.30;1.98;;;4.70;99.90;;;;;;5054665;28;20483;-84
2022/01/09 09:01:52;;;;;;;19.88;2.42;;;4.80;99.90;;;;;;5072510;28;20087;-82
2022/01/09 09:04:18;;;;;;;19.35;2.45;;;4.70;99.90;;;;;;5072147;28;20095;-83
2022/01/09 09:06:44;;;;;;;11.48;2.00;;;4.70;99.90;;;;;;5072864;28;20076;-84
2022/01/09 09:09:10;;;;;;;12.98;2.15;;;5.30;99.90;;;;;;5072629;28;20044;-82
2022/01/09 09:11:36;;;;;;;12.50;2.00;;;5.50;99.90;;;;;;5072585;28;20125;-82
2022/01/09 09:14:03;;;;;;;12.73;2.50;;;4.70;99.90;;;;;;5072601;28;20132;-83
2022/01/09 09:16:30;;;;;;;20.67;1.90;;;5.00;99.90;;;;;;5043850;28;20040;-81
2022/01/09 09:18:55;;;;;;;18.90;2.10;;;4.80;99.90;;;;;;5058792;28;20072;-82
2022/01/09 09:21:21;;;;;;;15.40;2.85;;;4.80;99.90;;;;;;5055404;28;20068;-82
2022/01/09 09:23:47;;;;;;;15.50;2.45;;;4.80;99.90;;;;;;5055436;28;20528;-82
2022/01/09 09:26:13;;;;;;;13.48;2.42;;;4.80;99.90;;;;;;5072072;28;20554;-83
2022/01/09 09:28:39;;;;;;;19.00;2.40;;;4.80;99.90;;;;;;5071840;28;20487;-81
2022/01/09 09:31:05;;;;;;;20.48;2.90;;;4.80;99.90;;;;;;5072032;28;20048;-82
2022/01/09 09:33:31;;;;;;;13.85;1.95;;;4.90;99.90;;;;;;5071699;28;20498;-84
2022/01/09 09:36:02;;;;;;;14.32;2.08;;;4.80;99.90;;;;;;5072058;28;20048;-83
2022/01/09 09:38:29;;;;;;;13.55;2.42;;;4.80;99.90;;;;;;5071735;28;20047;-81
2022/01/09 09:40:55;;;;;;;21.48;2.90;;;4.80;99.90;;;;;;5072034;28;20052;-83
2022/01/09 09:43:20;;;;;;;13.05;2.08;;;4.90;99.90;;;;;;5071952;28;20372;-84
2022/01/09 09:45:46;;;;;;;16.13;1.85;;;5.70;99.90;;;;;;5051696;28;20063;-83
2022/01/09 09:48:12;;;;;;;12.45;1.60;;;4.90;99.90;;;;;;5068465;28;20040;-85
2022/01/09 09:50:38;;;;;;;9.63;1.58;;;4.90;99.90;;;;;;5051851;28;20048;-88
2022/01/09 09:53:04;;;;;;;9.85;1.55;;;5.60;99.90;;;;;;5033971;28;20048;-86
2022/01/09 09:55:30;;;;;;;10.40;2.60;;;4.90;99.90;;;;;;5057129;28;20086;-83
2022/01/09 09:57:56;;;;;;;12.32;1.85;;;5.80;99.90;;;;;;5051522;28;20102;-85
2022/01/09 10:00:22;;;;;;;13.82;1.98;;;4.90;99.90;;;;;;5051599;28;20496;-83
2022/01/09 10:02:54;;;;;;;8.60;1.25;;;4.90;99.90;;;;;;5051364;28;20037;-83
2022/01/09 10:05:23;;;;;;;8.65;1.35;;;4.90;99.90;;;;;;5052322;28;20092;-89
2022/01/09 10:07:51;;;;;;;5.93;1.38;;;5.20;99.90;;;;;;5051844;28;20052;-84
2022/01/09 10:10:19;;;;;;;12.63;2.20;;;4.90;99.90;;;;;;5051514;28;20088;-85
2022/01/09 10:12:47;;;;;;;10.60;1.98;;;5.70;99.90;;;;;;5051450;28;20049;-84
2022/01/09 10:15:19;;;;;;;10.82;1.52;;;4.90;99.90;;;;;;5036347;28;20052;-83
2022/01/09 10:17:50;;;;;;;14.63;2.13;;;4.90;99.90;;;;;;5052393;28;20059;-83
2022/01/09 10:20:24;;;;;;;7.10;1.25;;;5.10;99.90;;;;;;5051203;28;20060;-83
2022/01/09 10:22:51;;;;;;;16.42;2.40;;;5.10;99.90;;;;;;5056039;28;20041;-81
2022/01/09 10:25:27;;;;;;;17.60;2.22;;;5.00;99.90;;;;;;5061397;28;20056;-82
2022/01/09 10:28:13;;;;;;;18.85;2.72;;;5.00;99.90;;;;;;5071129;28;20032;-82
2022/01/09 10:30:47;;;;;;;14.85;2.17;;;5.10;99.90;;;;;;5050903;28;20103;-87
2022/01/09 10:33:37;;;;;;;14.73;1.45;;;5.00;99.90;;;;;;5050920;28;20041;-82
2022/01/09 10:36:04;;;;;;;15.25;1.65;;;5.80;99.90;;;;;;5050591;28;20044;-87
2022/01/09 10:38:30;;;;;;;12.60;1.83;;;5.10;99.90;;;;;;5066029;28;20060;-86
2022/01/09 10:41:03;;;;;;;7.70;1.77;;;5.60;99.90;;;;;;5070575;28;20089;-83
2022/01/09 10:43:41;;;;;;;15.40;1.58;;;5.10;99.90;;;;;;5070910;28;20396;-85
2022/01/09 10:46:07;;;;;;;9.18;1.52;;;5.10;99.90;;;;;;5053044;28;20091;-82
2022/01/09 10:48:42;;;;;;;11.77;1.48;;;5.20;99.90;;;;;;5054294;28;20037;-80
2022/01/09 10:51:10;;;;;;;8.68;1.30;;;6.00;99.90;;;;;;5061791;28;20049;-86
2022/01/09 10:53:38;;;;;;;10.23;1.30;;;5.20;99.90;;;;;;5050713;28;20516;-84
2022/01/09 10:56:20;;;;;;;9.15;1.40;;;5.20;99.90;;;;;;5050726;28;20045;-86
2022/01/09 10:58:54;;;;;;;15.20;1.70;;;5.70;99.90;;;;;;5050509;28;20114;-85
2022/01/09 11:01:28;;;;;;;11.05;1.65;;;5.30;99.90;;;;;;5050247;28;20543;-85
2022/01/09 11:03:57;;;;;;;16.57;1.63;;;5.30;99.90;;;;;;5031990;28;20057;-86
2022/01/09 11:06:26;;;;;;;14.55;2.08;;;5.40;99.90;;;;;;5050386;28;20287;-83
2022/01/09 11:08:53;;;;;;;14.95;1.98;;;5.40;99.90;;;;;;5050516;28;20041;-84
2022/01/09 11:11:40;;;;;;;9.77;1.52;;;5.80;99.90;;;;;;5053790;28;20064;-85
2022/01/09 11:14:12;;;;;;;18.65;2.78;;;5.50;99.90;;;;;;5066597;28;20044;-85
2022/01/09 11:16:43;;;;;;;14.25;2.45;;;5.60;99.90;;;;;;5067800;28;20045;-88
2022/01/09 11:19:15;;;;;;;19.35;2.22;;;5.70;99.90;;;;;;5061544;28;20135;-84
2022/01/09 11:21:45;;;;;;;17.85;3.15;;;5.80;99.90;;;;;;5070023;28;20048;-83
2022/01/09 11:24:25;;;;;;;15.75;2.08;;;5.90;99.90;;;;;;5050638;28;20057;-83
2022/01/09 11:26:55;;;;;;;14.82;1.92;;;6.10;99.90;;;;;;5050027;28;20045;-84
2022/01/09 11:29:39;;;;;;;9.43;2.00;;;6.20;99.90;;;;;;5049980;28;20049;-85
2022/01/09 11:32:23;;;;;;;13.48;1.80;;;6.30;99.90;;;;;;5052815;28;20045;-84
2022/01/09 11:34:56;;;;;;;20.38;2.42;;;6.40;99.90;;;;;;5060125;28;20049;-84
2022/01/09 11:37:53;;;;;;;17.08;2.22;;;6.60;99.90;;;;;;5069935;28;20041;-83
2022/01/09 11:40:32;;;;;;;13.40;1.95;;;7.20;99.90;;;;;;5050452;28;20417;-83
2022/01/09 11:43:14;;;;;;;17.52;2.38;;;6.80;99.90;;;;;;5050594;28;20049;-83
2022/01/09 11:45:51;;;;;;;18.88;2.13;;;6.90;99.90;;;;;;5050615;28;20049;-84
2022/01/09 11:48:39;;;;;;;15.02;1.85;;;7.00;99.90;;;;;;5050497;28;20041;-83
2022/01/09 11:51:08;;;;;;;14.65;2.25;;;7.80;99.90;;;;;;5060111;28;20135;-85
2022/01/09 11:53:55;;;;;;;10.65;2.17;;;7.10;99.90;;;;;;5069530;28;20048;-83
2022/01/09 11:56:55;;;;;;;9.05;1.70;;;7.10;99.90;;;;;;5069881;28;20132;-83
2022/01/09 11:59:22;;;;;;;12.02;1.70;;;7.10;99.90;;;;;;5069986;28;20070;-83
2022/01/09 12:01:51;;;;;;;13.57;1.80;;;7.10;99.90;;;;;;5051906;28;20048;-83
2022/01/09 12:04:35;;;;;;;11.95;1.98;;;7.40;99.90;;;;;;5069765;28;20083;-85
2022/01/09 12:07:04;;;;;;;10.40;1.88;;;7.10;99.90;;;;;;5069827;28;20044;-83
2022/01/09 12:09:46;;;;;;;12.73;1.50;;;7.10;99.90;;;;;;5067707;28;20048;-86
2022/01/09 12:12:19;;;;;;;12.05;1.85;;;7.10;99.90;;;;;;5069607;28;20048;-83
2022/01/09 12:14:55;;;;;;;10.65;2.20;;;7.10;99.90;;;;;;5051824;28;20051;-83
2022/01/09 12:17:21;;;;;;;16.33;2.00;;;7.20;99.90;;;;;;5069865;28;20048;-83
2022/01/09 12:20:07;;;;;;;9.90;1.75;;;7.50;99.90;;;;;;5069751;28;20117;-83
2022/01/09 12:22:39;;;;;;;14.95;1.88;;;7.10;99.90;;;;;;5038953;28;20037;-85
2022/01/09 12:25:26;;;;;;;10.98;1.63;;;7.20;99.90;;;;;;5072535;28;20113;-84
2022/01/09 12:27:56;;;;;;;7.78;1.25;;;7.10;99.90;;;;;;5036980;28;20098;-82
2022/01/09 12:30:47;;;;;;;12.38;1.70;;;7.70;99.90;;;;;;5071521;28;20052;-82
2022/01/09 12:33:22;;;;;;;10.70;1.65;;;6.90;99.90;;;;;;5073201;28;20051;-83
2022/01/09 12:35:54;;;;;;;12.27;1.60;;;6.90;99.90;;;;;;5073241;28;20119;-83
2022/01/09 12:38:22;;;;;;;12.93;1.75;;;7.60;99.90;;;;;;5072215;28;20048;-85
2022/01/09 12:40:56;;;;;;;12.57;1.65;;;6.80;99.90;;;;;;5050065;28;20048;-81
2022/01/09 12:43:22;;;;;;;14.05;2.13;;;7.00;99.90;;;;;;5053743;28;20052;-85
2022/01/09 12:45:49;;;;;;;14.32;2.10;;;7.60;99.90;;;;;;5052962;28;20053;-82
2022/01/09 12:48:27;;;;;;;8.55;1.40;;;7.10;99.90;;;;;;5052911;28;20045;-83
2022/01/09 12:50:54;;;;;;;12.77;1.60;;;7.40;99.90;;;;;;5052780;28;20119;-83
2022/01/09 12:53:29;;;;;;;13.00;1.48;;;7.50;99.90;;;;;;5052445;28;20041;-83
2022/01/09 12:55:57;;;;;;;10.55;1.67;;;7.20;99.90;;;;;;5052530;28;20506;-84